Time;durP1;ratioP1;P1;durP2;ratioP2;P2;SDS_P1;SDS_P2;PMS_P1;PMS_P2;Temp;Humidity;BMP_temperature;BMP_pressure;BME280_temperature;BME280_humidity;BME280_pressure;Samples;Min_cycle;Max_cycle;Signal;HPM_P1;HPM_P2
2022/04/17 00:01:11;;;;;;;5.07;4.77;;;;;;;17.22;64.47;99077.69;5110821;28;20589;-66
2022/04/17 00:03:38;;;;;;;4.03;3.77;;;;;;;17.21;65.09;99082.97;5111482;28;20195;-66
2022/04/17 00:06:06;;;;;;;3.67;3.47;;;;;;;17.22;66.79;99077.69;5111109;28;20195;-67
2022/04/17 00:08:34;;;;;;;4.57;4.37;;;;;;;17.24;68.19;99072.44;5111246;28;20212;-66
2022/04/17 00:11:02;;;;;;;4.10;3.80;;;;;;;17.20;68.65;99066.59;5108276;28;20271;-66
2022/04/17 00:13:29;;;;;;;4.43;4.13;;;;;;;17.18;68.73;99073.66;5110911;28;20203;-66
2022/04/17 00:15:56;;;;;;;6.17;4.00;;;;;;;17.15;69.35;99057.47;5111120;28;20289;-66
2022/04/17 00:18:23;;;;;;;4.83;3.70;;;;;;;17.13;69.80;99061.88;5109931;28;20293;-66
2022/04/17 00:20:50;;;;;;;4.43;4.20;;;;;;;17.11;69.75;99061.16;5111201;28;20209;-66
2022/04/17 00:23:16;;;;;;;3.73;3.57;;;;;;;17.06;69.50;99063.22;5110927;28;20187;-66
2022/04/17 00:25:45;;;;;;;4.10;3.90;;;;;;;17.04;69.74;99065.06;5111186;28;20199;-66
2022/04/17 00:28:12;;;;;;;3.97;3.67;;;;;;;17.02;70.09;99064.31;5110935;28;20301;-66
2022/04/17 00:30:38;;;;;;;3.90;3.63;;;;;;;17.00;70.24;99058.41;5111075;28;20278;-66
2022/04/17 00:33:05;;;;;;;4.03;3.83;;;;;;;16.98;70.69;99055.06;5108916;28;20218;-66
2022/04/17 00:35:32;;;;;;;4.57;4.27;;;;;;;16.91;71.55;99064.16;5111103;28;20206;-66
2022/04/17 00:37:59;;;;;;;3.53;3.33;;;;;;;16.84;71.07;99070.63;5114970;28;20270;-67
2022/04/17 00:40:26;;;;;;;4.00;3.60;;;;;;;16.73;71.51;99061.78;5114704;28;20214;-66
2022/04/17 00:42:55;;;;;;;4.57;4.07;;;;;;;16.68;70.86;99062.94;5114450;28;20195;-67
2022/04/17 00:45:22;;;;;;;3.83;3.43;;;;;;;16.66;71.23;99070.81;5114186;28;20318;-66
2022/04/17 00:47:49;;;;;;;4.97;3.97;;;;;;;16.66;70.87;99070.81;5114524;28;20290;-66
2022/04/17 00:50:16;;;;;;;5.23;3.97;;;;;;;16.64;71.19;99070.06;5114103;28;20289;-66
2022/04/17 00:52:44;;;;;;;4.03;3.83;;;;;;;16.63;71.75;99075.34;5114222;28;20311;-66
2022/04/17 00:55:12;;;;;;;4.27;4.07;;;;;;;16.58;72.07;99065.25;5113461;28;20206;-66
2022/04/17 00:57:41;;;;;;;4.60;4.30;;;;;;;16.57;72.03;99061.03;5113307;28;20204;-66
2022/04/17 01:00:11;;;;;;;8.60;4.70;;;;;;;16.57;71.98;99058.44;5114098;28;20294;-66
2022/04/17 01:02:38;;;;;;;5.30;4.90;;;;;;;16.59;72.60;99064.34;5113872;28;20366;-66
2022/04/17 01:05:06;;;;;;;5.53;5.03;;;;;;;16.47;73.18;99072.81;5114026;28;20293;-66
2022/04/17 01:07:33;;;;;;;4.93;4.63;;;;;;;16.35;73.52;99070.94;5113754;28;20199;-66
2022/04/17 01:10:02;;;;;;;4.73;4.43;;;;;;;16.18;74.03;99058.16;5114283;28;20639;-66
2022/04/17 01:12:29;;;;;;;5.13;4.83;;;;;;;16.04;74.18;99045.19;5114003;27;20284;-66
2022/04/17 01:14:56;;;;;;;4.83;4.63;;;;;;;16.06;75.48;99061.44;5114168;28;20753;-66
2022/04/17 01:17:24;;;;;;;5.63;5.30;;;;;;;15.97;75.20;99060.22;5114137;28;20198;-66
2022/04/17 01:19:51;;;;;;;5.50;5.20;;;;;;;16.01;74.56;99058.31;5112353;28;20203;-66
2022/04/17 01:22:19;;;;;;;7.87;5.80;;;;;;;16.02;73.72;99059.97;5113917;28;20191;-66
2022/04/17 01:27:31;;;;;;;5.73;5.40;;;;;;;16.08;74.38;99064.78;5113336;28;20260;-66
2022/04/17 01:29:58;;;;;;;5.73;5.27;;;;;;;16.03;74.69;99039.19;5113017;28;20746;-66
2022/04/17 01:32:25;;;;;;;5.77;5.37;;;;;;;16.11;75.12;99039.59;5112752;28;20217;-66
2022/04/17 01:34:52;;;;;;;6.83;5.80;;;;;;;16.12;73.78;99049.00;5113514;28;20620;-66
2022/04/17 01:37:20;;;;;;;7.67;6.13;;;;;;;16.16;72.82;99045.31;5113774;28;20199;-66
2022/04/17 01:39:47;;;;;;;5.87;5.47;;;;;;;16.21;72.97;99047.66;5113103;28;20218;-66
2022/04/17 01:42:16;;;;;;;5.27;4.97;;;;;;;16.25;71.87;99051.72;5113749;28;20213;-66
2022/04/17 01:44:43;;;;;;;5.73;5.43;;;;;;;16.25;71.96;99054.31;5113390;28;20621;-66
2022/04/17 01:47:10;;;;;;;6.73;6.13;;;;;;;16.18;72.52;99058.16;5113336;28;20206;-66
2022/04/17 01:49:37;;;;;;;8.97;5.67;;;;;;;16.14;72.92;99054.09;5112351;28;20195;-66
2022/04/17 01:52:05;;;;;;;6.50;5.90;;;;;;;16.16;73.24;99049.66;5111523;28;20202;-66
2022/04/17 01:54:33;;;;;;;5.77;5.37;;;;;;;16.16;73.30;99054.81;5111570;28;20641;-66
2022/04/17 01:57:00;;;;;;;6.97;6.47;;;;;;;16.18;73.45;99043.50;5112141;28;20205;-66
2022/04/17 01:59:27;;;;;;;6.30;5.90;;;;;;;16.21;73.24;99042.47;5112151;28;20286;-66
2022/04/17 02:01:54;;;;;;;6.07;5.77;;;;;;;16.26;73.01;99041.28;5112018;28;20202;-66
2022/04/17 02:04:21;;;;;;;6.67;6.17;;;;;;;16.26;73.62;99046.44;5112492;28;20218;-66
2022/04/17 02:06:48;;;;;;;6.27;4.80;;;;;;;16.25;72.13;99043.97;5112660;28;20198;-66
2022/04/17 02:09:17;;;;;;;5.70;5.40;;;;;;;16.27;72.03;99039.53;5112872;28;20192;-66
2022/04/17 02:11:46;;;;;;;6.00;5.70;;;;;;;16.23;72.78;99025.94;5112680;28;20248;-66
2022/04/17 02:14:13;;;;;;;5.47;5.17;;;;;;;16.27;72.41;99037.78;5111131;28;20409;-66
2022/04/17 02:16:41;;;;;;;7.67;5.50;;;;;;;16.29;73.15;99042.84;5112667;28;20290;-66
2022/04/17 02:19:09;;;;;;;6.00;5.60;;;;;;;16.16;73.40;99034.13;5112321;27;20203;-66
2022/04/17 02:21:36;;;;;;;5.80;5.43;;;;;;;16.15;73.87;99035.06;5112655;28;20289;-66
2022/04/17 02:24:03;;;;;;;6.60;5.87;;;;;;;16.07;73.96;99011.41;5112507;28;20278;-66
2022/04/17 02:26:30;;;;;;;5.37;5.00;;;;;;;16.04;74.53;99034.84;5112650;28;20205;-66
2022/04/17 02:28:59;;;;;;;6.17;5.87;;;;;;;15.97;74.80;99034.38;5112592;28;20674;-66
2022/04/17 02:31:27;;;;;;;6.77;6.37;;;;;;;16.00;74.57;99039.38;5112238;28;20195;-66
2022/04/17 02:33:56;;;;;;;6.57;6.07;;;;;;;15.86;75.69;99039.34;5112251;28;20214;-66
2022/04/17 02:36:23;;;;;;;7.50;6.87;;;;;;;15.84;75.21;99030.00;5111975;28;20207;-66
2022/04/17 02:38:50;;;;;;;6.17;5.77;;;;;;;15.85;75.62;99045.44;5112249;28;20314;-66
2022/04/17 02:41:17;;;;;;;7.03;6.63;;;;;;;15.90;74.97;99050.31;5109760;28;20305;-66
2022/04/17 02:43:44;;;;;;;7.30;6.53;;;;;;;15.91;74.78;99057.16;5112627;28;20753;-66
2022/04/17 02:46:12;;;;;;;6.40;5.80;;;;;;;15.91;74.85;99057.16;5112215;28;20291;-66
2022/04/17 02:48:38;;;;;;;5.70;5.40;;;;;;;15.70;76.18;99056.66;5111814;28;20289;-66
2022/04/17 02:51:06;;;;;;;5.33;5.03;;;;;;;15.38;78.01;99047.25;5112045;28;20653;-66
2022/04/17 02:53:33;;;;;;;6.53;5.40;;;;;;;15.43;81.65;99048.66;5111964;28;20716;-66
2022/04/17 02:56:01;;;;;;;4.93;4.63;;;;;;;15.44;79.42;99045.16;5112216;28;20209;-66
2022/04/17 02:58:28;;;;;;;5.33;4.93;;;;;;;15.46;79.73;99038.13;5111491;28;20199;-66
2022/04/17 03:06:24;;;;;;;5.77;5.47;;;;;;;15.31;78.08;99033.84;5111876;28;20243;-66
2022/04/17 03:08:51;;;;;;;5.30;4.97;;;;;;;15.36;78.40;99031.81;5111895;28;20199;-66
2022/04/17 03:11:18;;;;;;;5.57;5.10;;;;;;;15.35;78.05;99035.31;5112022;28;20230;-66
2022/04/17 03:13:45;;;;;;;5.80;5.50;;;;;;;15.35;78.82;99040.47;5111688;28;20222;-66
2022/04/17 03:16:12;;;;;;;5.70;5.40;;;;;;;15.41;77.77;99040.13;5111910;28;20221;-66
2022/04/17 03:18:40;;;;;;;5.93;5.47;;;;;;;15.45;77.45;99035.63;5110209;28;20286;-66
2022/04/17 03:21:07;;;;;;;6.10;5.60;;;;;;;15.53;77.12;99049.84;5112007;28;20199;-66
2022/04/17 03:23:34;;;;;;;5.93;4.93;;;;;;;15.54;76.27;99043.72;5110128;28;20190;-66
2022/04/17 03:26:01;;;;;;;5.67;5.27;;;;;;;15.58;75.53;99047.81;5111773;28;20214;-66
2022/04/17 03:28:28;;;;;;;6.07;5.13;;;;;;;15.53;75.84;99049.00;5111362;28;20209;-66
2022/04/17 03:30:55;;;;;;;5.50;5.10;;;;;;;15.45;76.05;99045.97;5111670;28;20221;-66
2022/04/17 03:33:22;;;;;;;4.70;4.50;;;;;;;15.43;77.75;99058.97;5111440;28;20206;-66
2022/04/17 03:35:50;;;;;;;5.37;4.93;;;;;;;15.39;78.60;99057.47;5111336;28;20191;-66
2022/04/17 03:38:17;;;;;;;4.73;4.43;;;;;;;15.27;79.59;99058.16;5111369;28;20202;-66
2022/04/17 03:40:44;;;;;;;5.00;4.60;;;;;;;15.29;80.22;99061.47;5110811;28;20206;-66
2022/04/17 03:43:11;;;;;;;4.67;4.27;;;;;;;15.29;80.61;99061.47;5110537;28;20641;-66
2022/04/17 03:45:37;;;;;;;4.37;4.17;;;;;;;15.25;80.92;99065.97;5110825;28;20198;-66
2022/04/17 03:48:05;;;;;;;3.87;3.67;;;;;;;15.24;80.60;99073.81;5111116;28;20203;-66
2022/04/17 03:50:32;;;;;;;3.90;3.70;;;;;;;15.08;80.50;99067.81;5110869;28;20302;-66
2022/04/17 03:53:00;;;;;;;4.60;4.10;;;;;;;14.97;81.38;99080.44;5109221;28;20768;-66
2022/04/17 03:55:27;;;;;;;3.90;3.70;;;;;;;14.89;82.24;99082.63;5111442;28;20645;-65
2022/04/17 03:57:54;;;;;;;5.50;4.60;;;;;;;14.80;82.78;99077.94;5111066;28;20289;-66
2022/04/17 04:00:21;;;;;;;3.90;3.67;;;;;;;14.84;83.20;99082.00;5110285;28;20283;-66
2022/04/17 04:02:51;;;;;;;3.83;3.63;;;;;;;14.75;83.74;99079.91;5110260;28;20607;-66
2022/04/17 04:05:19;;;;;;;4.37;4.07;;;;;;;14.81;84.46;99089.91;5110094;28;20191;-66
2022/04/17 04:07:46;;;;;;;4.53;4.23;;;;;;;14.70;84.74;99083.56;5108176;28;20199;-66
2022/04/17 04:10:15;;;;;;;3.83;3.60;;;;;;;14.60;85.17;99092.69;5109740;28;20772;-65
2022/04/17 04:12:42;;;;;;;3.33;3.23;;;;;;;14.53;86.18;99081.03;5112497;28;20214;-66
2022/04/17 04:15:10;;;;;;;4.10;3.90;;;;;;;14.44;87.49;99084.06;5112781;28;20248;-65
2022/04/17 04:17:37;;;;;;;3.57;3.37;;;;;;;14.39;88.90;99083.47;5113139;28;20286;-66
2022/04/17 04:20:05;;;;;;;4.60;4.30;;;;;;;14.22;91.03;99091.16;5114551;28;20591;-65
2022/04/17 04:22:32;;;;;;;4.47;4.13;;;;;;;14.06;93.30;99087.69;5114613;28;20194;-65
2022/04/17 04:24:59;;;;;;;4.50;4.30;;;;;;;13.99;96.10;99091.50;5114470;28;20199;-65
2022/04/17 04:30:11;;;;;;;4.97;4.70;;;;;;;13.65;100.00;99087.97;5110915;28;20676;-65
2022/04/17 04:32:38;;;;;;;4.57;4.27;;;;;;;13.64;100.00;99094.00;5114664;28;20328;-66
2022/04/17 04:35:06;;;;;;;5.37;4.97;;;;;;;13.54;100.00;99103.06;5114319;28;20233;-65
2022/04/17 04:37:33;;;;;;;4.70;4.50;;;;;;;13.24;100.00;99068.47;5114381;28;20285;-65
2022/04/17 04:40:00;;;;;;;6.00;5.57;;;;;;;13.33;100.00;99108.38;5112943;28;20215;-66
2022/04/17 04:42:29;;;;;;;6.57;5.97;;;;;;;13.32;100.00;99097.25;5112234;28;20573;-65
2022/04/17 04:47:40;;;;;;;6.73;6.27;;;;;;;13.26;100.00;99107.81;5109885;28;20635;-65
2022/04/17 04:50:07;;;;;;;7.37;6.90;;;;;;;13.25;100.00;99106.16;5113102;28;20324;-65
2022/04/17 04:52:36;;;;;;;6.67;6.27;;;;;;;13.19;100.00;99121.88;5113101;28;20198;-66
2022/04/17 04:55:04;;;;;;;6.37;5.83;;;;;;;13.14;100.00;99118.69;5113389;28;20590;-65
2022/04/17 04:57:32;;;;;;;6.07;5.53;;;;;;;13.11;100.00;99119.66;5111542;28;20268;-65
2022/04/17 05:00:00;;;;;;;6.57;6.20;;;;;;;13.00;100.00;99115.84;5112518;28;20290;-65
2022/04/17 05:02:27;;;;;;;6.40;6.00;;;;;;;12.84;100.00;99115.69;5112427;28;20206;-65
2022/04/17 05:04:54;;;;;;;6.83;6.33;;;;;;;12.92;100.00;99117.94;5110292;28;20286;-65
2022/04/17 05:07:21;;;;;;;7.87;7.37;;;;;;;12.92;100.00;99121.34;5113079;28;20225;-65
2022/04/17 05:09:48;;;;;;;7.20;6.77;;;;;;;12.84;100.00;99125.16;5110181;28;20205;-66
2022/04/17 05:12:15;;;;;;;7.03;6.53;;;;;;;12.86;100.00;99123.38;5112493;28;20203;-65
2022/04/17 05:14:45;;;;;;;7.00;6.50;;;;;;;12.73;100.00;99127.38;5113183;28;20210;-65
2022/04/17 05:17:12;;;;;;;7.80;7.40;;;;;;;12.74;100.00;99129.00;5112857;28;20202;-66
2022/04/17 05:19:39;;;;;;;7.67;7.13;;;;;;;12.74;100.00;99134.16;5113549;28;20281;-66
2022/04/17 05:22:10;;;;;;;8.07;7.57;;;;;;;12.60;100.00;99109.06;5110387;28;20748;-65
2022/04/17 05:24:37;;;;;;;8.07;7.27;;;;;;;12.70;100.00;99145.50;5112953;28;20198;-66
2022/04/17 05:27:05;;;;;;;8.83;8.23;;;;;;;12.66;100.00;99146.53;5113395;28;20202;-66
2022/04/17 05:29:31;;;;;;;8.30;7.63;;;;;;;12.64;100.00;99137.13;5112958;28;20735;-65
2022/04/17 05:32:00;;;;;;;9.70;6.73;;;;;;;12.56;100.00;99134.06;5113352;28;20673;-65
2022/04/17 05:34:27;;;;;;;10.20;8.13;;;;;;;12.53;100.00;99143.63;5113145;28;20766;-66
2022/04/17 05:36:55;;;;;;;7.53;7.03;;;;;;;12.32;100.00;99131.66;5113232;28;20281;-66
2022/04/17 05:39:22;;;;;;;8.20;7.63;;;;;;;12.38;100.00;99144.25;5112679;28;20728;-66
2022/04/17 05:41:49;;;;;;;8.13;7.63;;;;;;;12.40;100.00;99138.19;5110382;28;20340;-65
2022/04/17 05:44:17;;;;;;;8.47;7.97;;;;;;;12.37;100.00;99148.59;5111950;28;20207;-66
2022/04/17 05:46:44;;;;;;;9.93;8.93;;;;;;;12.35;100.00;99142.66;5111832;28;20627;-66
2022/04/17 05:49:13;;;;;;;8.40;7.90;;;;;;;12.36;100.00;99149.47;5112533;28;20278;-65
2022/04/17 05:51:40;;;;;;;7.83;7.33;;;;;;;12.29;100.00;99145.50;5112508;28;20197;-65
2022/04/17 05:54:08;;;;;;;8.53;8.00;;;;;;;12.24;100.00;99150.00;5111151;28;20329;-66
2022/04/17 05:56:37;;;;;;;8.87;8.27;;;;;;;12.21;100.00;99154.41;5112458;28;20199;-66
2022/04/17 05:59:04;;;;;;;8.17;7.57;;;;;;;12.22;100.00;99149.19;5112879;28;20214;-66
2022/04/17 06:01:31;;;;;;;8.13;7.53;;;;;;;12.25;100.00;99154.22;5109208;28;20285;-66
2022/04/17 06:03:58;;;;;;;7.40;6.80;;;;;;;12.28;100.00;99151.50;5112674;28;20677;-66
2022/04/17 06:06:26;;;;;;;7.57;7.17;;;;;;;12.17;100.00;99151.13;5112370;28;20202;-65
2022/04/17 06:08:53;;;;;;;8.63;7.83;;;;;;;12.16;100.00;99146.88;5112310;28;20682;-65
2022/04/17 06:11:20;;;;;;;7.87;7.23;;;;;;;12.08;100.00;99141.22;5112478;28;20194;-65
2022/04/17 06:13:47;;;;;;;8.83;8.10;;;;;;;12.03;100.00;99140.56;5112060;28;20681;-66
2022/04/17 06:16:14;;;;;;;8.13;7.50;;;;;;;12.02;100.00;99134.59;5111689;28;20673;-66
2022/04/17 06:18:41;;;;;;;9.13;8.43;;;;;;;12.09;100.00;99140.31;5112195;28;20233;-66
2022/04/17 06:21:07;;;;;;;8.40;7.80;;;;;;;12.03;100.00;99136.28;5111398;28;20218;-65
2022/04/17 06:23:36;;;;;;;7.77;7.20;;;;;;;11.93;100.00;99139.25;5112459;28;20285;-65
2022/04/17 06:26:03;;;;;;;7.73;6.80;;;;;;;11.89;100.00;99135.97;5109616;28;20585;-66
2022/04/17 06:28:30;;;;;;;8.53;7.83;;;;;;;11.89;100.00;99133.41;5109257;28;20271;-66
2022/04/17 06:30:57;;;;;;;8.27;7.57;;;;;;;11.98;100.00;99138.19;5110074;28;20297;-65
2022/04/17 06:33:23;;;;;;;9.63;8.93;;;;;;;12.03;100.00;99138.00;5110701;28;20206;-65
2022/04/17 06:35:50;;;;;;;8.73;8.13;;;;;;;11.98;100.00;99132.22;5110727;28;20211;-66
2022/04/17 06:38:17;;;;;;;7.30;6.73;;;;;;;11.90;100.00;99136.81;5106425;28;20301;-66
2022/04/17 06:40:46;;;;;;;9.90;9.03;;;;;;;11.87;100.00;99135.22;5109696;28;20253;-66
2022/04/17 06:43:12;;;;;;;10.37;9.37;;;;;;;11.86;100.00;99141.22;5106661;28;20291;-66
2022/04/17 06:45:41;;;;;;;8.40;7.80;;;;;;;11.77;100.00;99133.91;5108109;28;20650;-65
2022/04/17 06:48:15;;;;;;;9.50;8.80;;;;;;;11.71;100.00;99141.84;5109594;28;20210;-66
2022/04/17 06:50:43;;;;;;;11.60;10.43;;;;;;;11.74;100.00;99143.44;5106541;28;20202;-66
2022/04/17 06:53:10;;;;;;;11.27;10.17;;;;;;;11.84;100.00;99137.06;5109959;28;20209;-66
2022/04/17 06:55:37;;;;;;;11.27;10.20;;;;;;;11.83;100.00;99136.22;5109255;28;20317;-65
2022/04/17 06:58:05;;;;;;;10.23;9.33;;;;;;;11.75;100.00;99143.41;5111743;28;20270;-66
2022/04/17 07:00:32;;;;;;;13.70;12.37;;;;;;;11.80;100.00;99136.34;5110164;27;20669;-65
2022/04/17 07:02:59;;;;;;;12.10;9.90;;;;;;;11.85;100.00;99141.31;5103916;27;20645;-66
2022/04/17 07:05:26;;;;;;;10.93;9.53;;;;;;;11.79;100.00;99133.84;5106738;28;20578;-65
2022/04/17 07:08:04;;;;;;;9.73;9.03;;;;;;;11.84;100.00;99144.75;5109517;28;20245;-65
2022/04/17 07:10:33;;;;;;;9.93;9.03;;;;;;;11.76;100.00;99151.94;5107913;28;20202;-65
2022/04/17 07:13:00;;;;;;;12.60;10.20;;;;;;;11.82;100.00;99154.28;5110614;28;20198;-65
2022/04/17 07:15:28;;;;;;;10.80;9.80;;;;;;;11.88;100.00;99154.03;5107241;28;20222;-65
2022/04/17 07:17:56;;;;;;;10.80;9.97;;;;;;;11.81;100.00;99150.03;5109624;28;20294;-66
2022/04/17 07:20:24;;;;;;;12.00;10.43;;;;;;;11.82;100.00;99149.97;5107961;27;20654;-65
2022/04/17 07:22:52;;;;;;;12.07;11.03;;;;;;;11.86;100.00;99154.06;5110906;28;20690;-66
2022/04/17 07:25:19;;;;;;;12.07;10.90;;;;;;;11.91;100.00;99156.47;5109599;28;20282;-65
2022/04/17 07:27:48;;;;;;;11.47;10.60;;;;;;;11.83;100.00;99161.06;5107322;28;20727;-65
2022/04/17 07:30:16;;;;;;;12.80;11.43;;;;;;;11.71;100.00;99148.69;5110177;28;20195;-65
2022/04/17 07:32:47;;;;;;;12.13;10.60;;;;;;;11.73;100.00;99152.06;5106665;28;20282;-66
2022/04/17 07:35:15;;;;;;;11.63;10.57;;;;;;;11.71;100.00;99164.09;5105568;28;20332;-65
2022/04/17 07:37:42;;;;;;;11.57;10.57;;;;;;;11.67;100.00;99177.91;5107448;28;20586;-65
2022/04/17 07:40:11;;;;;;;13.33;11.60;;;;;;;11.71;100.00;99170.09;5109720;28;20244;-66
2022/04/17 07:42:38;;;;;;;13.50;11.53;;;;;;;11.76;100.00;99167.34;5108121;28;20205;-66
2022/04/17 07:45:06;;;;;;;12.40;10.97;;;;;;;11.70;100.00;99168.41;5110034;28;20199;-65
2022/04/17 07:47:33;;;;;;;12.33;11.20;;;;;;;11.69;100.00;99155.59;5114321;28;20194;-65
2022/04/17 07:50:01;;;;;;;13.13;11.83;;;;;;;11.80;100.00;99161.19;5114429;28;20252;-66
2022/04/17 07:52:28;;;;;;;16.87;12.60;;;;;;;11.77;100.00;99153.59;5114412;28;20658;-66
2022/04/17 07:54:55;;;;;;;15.83;12.53;;;;;;;11.88;100.00;99160.00;5114427;28;20229;-66
2022/04/17 07:57:22;;;;;;;14.80;12.77;;;;;;;11.84;100.00;99153.31;5115131;28;20198;-66
2022/04/17 07:59:50;;;;;;;17.47;13.97;;;;;;;11.85;100.00;99156.72;5114957;28;20682;-66
2022/04/17 08:02:28;;;;;;;16.30;12.93;;;;;;;11.83;100.00;99159.34;5114607;28;20585;-66
2022/04/17 08:04:56;;;;;;;13.30;11.90;;;;;;;11.94;100.00;99156.34;5114065;28;20701;-65
2022/04/17 08:07:24;;;;;;;14.10;12.00;;;;;;;11.92;100.00;99160.72;5112682;28;20606;-65
2022/04/17 08:09:52;;;;;;;11.23;10.23;;;;;;;11.90;100.00;99158.19;5113182;28;20198;-65
2022/04/17 08:12:19;;;;;;;13.30;11.90;;;;;;;11.89;100.00;99143.69;5111074;28;20213;-65
2022/04/17 08:14:46;;;;;;;14.23;12.63;;;;;;;11.91;100.00;99134.19;5112044;28;20784;-66
2022/04/17 08:17:13;;;;;;;12.73;11.53;;;;;;;12.05;100.00;99138.78;5113382;28;20199;-66
2022/04/17 08:19:40;;;;;;;13.00;11.70;;;;;;;12.07;100.00;99136.97;5113838;28;20206;-66
2022/04/17 08:22:07;;;;;;;12.80;11.67;;;;;;;12.07;100.00;99139.56;5113504;28;20222;-66
2022/04/17 08:24:35;;;;;;;14.27;11.77;;;;;;;12.18;100.00;99131.41;5113814;28;20294;-66
2022/04/17 08:27:02;;;;;;;14.47;12.97;;;;;;;12.28;100.00;99120.69;5109103;28;20211;-66
2022/04/17 08:29:30;;;;;;;14.33;12.97;;;;;;;12.42;100.00;99131.22;5111539;28;20255;-66
2022/04/17 08:31:57;;;;;;;16.38;14.88;;;;;;;12.35;100.00;99131.53;5112404;28;20953;-63
2022/04/17 08:34:24;;;;;;;13.97;12.77;;;;;;;12.42;100.00;99128.66;5113911;28;20218;-63
2022/04/17 08:36:51;;;;;;;17.50;13.07;;;;;;;12.40;100.00;99129.63;5112045;28;20289;-63
2022/04/17 08:39:18;;;;;;;10.83;10.00;;;;;;;12.32;100.00;99126.53;5113315;28;20226;-63
2022/04/17 08:41:49;;;;;;;13.07;11.67;;;;;;;12.39;100.00;99139.06;5114237;28;20357;-63
2022/04/17 08:44:17;;;;;;;14.03;12.73;;;;;;;12.37;100.00;99130.59;5114227;28;20199;-63
2022/04/17 08:46:44;;;;;;;56.83;34.93;;;;;;;12.37;100.00;99115.19;5114383;28;20277;-63
2022/04/17 08:49:11;;;;;;;15.37;14.00;;;;;;;12.42;100.00;99110.66;5114336;28;20547;-63
2022/04/17 08:51:39;;;;;;;16.07;12.63;;;;;;;12.42;100.00;99107.25;5114023;28;20207;-63
2022/04/17 08:54:07;;;;;;;12.17;11.03;;;;;;;12.49;100.00;99134.38;5114188;28;20191;-64
2022/04/17 08:56:35;;;;;;;14.17;12.80;;;;;;;12.53;100.00;99129.06;5113676;28;20571;-63
2022/04/17 08:59:03;;;;;;;19.10;15.20;;;;;;;12.62;100.00;99120.94;5113390;28;20618;-64
2022/04/17 09:01:32;;;;;;;18.73;15.40;;;;;;;12.63;100.00;99119.22;5113548;28;20285;-63
2022/04/17 09:03:59;;;;;;;13.63;12.30;;;;;;;12.49;100.00;99111.25;5113690;28;20234;-64
2022/04/17 09:06:26;;;;;;;15.97;14.23;;;;;;;12.58;100.00;99103.97;5113826;28;20690;-63
2022/04/17 09:09:00;;;;;;;19.33;15.80;;;;;;;12.61;100.00;99101.25;5113635;28;20195;-63
2022/04/17 09:11:28;;;;;;;16.90;13.33;;;;;;;12.66;100.00;99107.94;5114156;28;20579;-64
2022/04/17 09:13:56;;;;;;;45.83;23.47;;;;;;;12.72;100.00;99102.53;5113603;28;20289;-63
2022/04/17 09:16:29;;;;;;;41.03;22.27;;;;;;;12.80;100.00;99092.72;5113358;28;20306;-64
2022/04/17 09:18:57;;;;;;;32.90;20.07;;;;;;;12.82;100.00;99103.81;5111264;28;20289;-63
2022/04/17 09:21:32;;;;;;;21.77;15.00;;;;;;;12.74;100.00;99101.56;5113730;28;20678;-64
2022/04/17 09:24:15;;;;;;;21.93;15.50;;;;;;;12.75;100.00;99102.41;5112058;28;20301;-64
2022/04/17 09:26:53;;;;;;;16.00;13.27;;;;;;;12.73;100.00;99093.94;5112434;28;20734;-64
2022/04/17 09:29:22;;;;;;;20.07;14.67;;;;;;;12.80;100.00;99092.72;5113448;28;20199;-63
2022/04/17 09:31:58;;;;;;;27.87;16.00;;;;;;;12.84;100.00;99094.28;5111825;28;20217;-63
2022/04/17 09:34:25;;;;;;;11.43;10.47;;;;;;;12.74;100.00;99093.00;5111184;28;20201;-64
2022/04/17 09:36:58;;;;;;;10.47;9.47;;;;;;;12.60;100.00;99086.72;5112945;28;20289;-64
2022/04/17 09:39:33;;;;;;;12.63;10.70;;;;;;;12.54;100.00;99096.44;5110931;28;20230;-64
2022/04/17 09:42:01;;;;;;;10.70;9.97;;;;;;;12.45;100.00;99087.41;5110173;28;20696;-64
2022/04/17 09:44:39;;;;;;;12.63;11.53;;;;;;;12.43;100.00;99066.06;5113320;28;20225;-64
2022/04/17 09:47:12;;;;;;;13.13;11.83;;;;;;;12.53;100.00;99075.06;5112586;28;20293;-65
2022/04/17 09:49:52;;;;;;;10.13;9.43;;;;;;;12.49;100.00;99077.81;5113280;28;20190;-64
2022/04/17 09:52:19;;;;;;;8.93;8.13;;;;;;;12.36;100.00;99067.22;5112961;28;20199;-64
2022/04/17 09:54:47;;;;;;;10.50;9.40;;;;;;;12.33;100.00;99067.38;5112330;28;20593;-63
2022/04/17 09:57:19;;;;;;;8.60;8.00;;;;;;;12.27;100.00;99067.63;5112757;28;20201;-64
2022/04/17 09:59:47;;;;;;;9.63;8.80;;;;;;;12.27;100.00;99052.19;5112843;28;20285;-64
2022/04/17 10:02:16;;;;;;;8.27;7.67;;;;;;;12.16;100.00;99044.09;5112924;28;20277;-64
2022/04/17 10:04:45;;;;;;;9.40;8.60;;;;;;;12.15;100.00;99037.28;5112758;28;20282;-64
2022/04/17 10:07:14;;;;;;;10.47;9.53;;;;;;;12.20;100.00;99040.50;5112804;28;20199;-64
2022/04/17 10:09:41;;;;;;;9.93;9.10;;;;;;;12.24;100.00;99036.91;5111586;28;20202;-64
2022/04/17 10:12:09;;;;;;;7.97;7.43;;;;;;;12.22;100.00;99033.56;5112545;28;20206;-64
2022/04/17 10:14:37;;;;;;;9.53;8.60;;;;;;;12.18;100.00;99032.00;5112367;28;20199;-64
2022/04/17 10:17:08;;;;;;;11.07;10.00;;;;;;;12.26;100.00;99032.53;5112727;27;20263;-63
2022/04/17 10:19:39;;;;;;;11.87;9.07;;;;;;;12.25;100.00;99033.44;5112236;28;20199;-64
2022/04/17 10:22:07;;;;;;;8.90;8.00;;;;;;;12.31;100.00;99037.50;5112699;28;20199;-64
2022/04/17 10:24:37;;;;;;;10.50;9.63;;;;;;;12.27;100.00;99026.50;5111772;28;20521;-67
2022/04/17 10:27:07;;;;;;;11.67;9.43;;;;;;;12.25;100.00;99023.16;5108415;28;20194;-67
2022/04/17 10:29:41;;;;;;;9.20;8.43;;;;;;;12.25;100.00;99022.31;5106684;28;20289;-68
2022/04/17 10:32:36;;;;;;;8.23;7.43;;;;;;;12.10;100.00;99021.25;5109241;28;20725;-68
2022/04/17 10:35:26;;;;;;;6.30;5.80;;;;;;;11.86;100.00;99032.50;5097983;28;20303;-68
2022/04/17 10:38:24;;;;;;;5.40;5.10;;;;;;;11.80;100.00;99030.19;5111459;28;20238;-67
2022/04/17 10:40:53;;;;;;;5.87;5.30;;;;;;;11.75;100.00;99032.13;5111203;28;20207;-68
2022/04/17 10:43:21;;;;;;;7.27;6.77;;;;;;;11.75;100.00;99032.97;5110733;28;20619;-67
2022/04/17 10:46:10;;;;;;;6.90;6.47;;;;;;;11.68;100.00;99038.38;5110166;28;20222;-67
2022/04/17 10:48:45;;;;;;;7.40;7.00;;;;;;;11.51;100.00;99039.03;5108652;28;20685;-67
2022/04/17 10:51:16;;;;;;;5.57;5.00;;;;;;;11.51;100.00;99055.28;5105932;28;20651;-67
2022/04/17 10:53:58;;;;;;;4.90;4.70;;;;;;;11.47;100.00;99053.72;5103971;28;20207;-67
2022/04/17 10:56:26;;;;;;;4.33;4.13;;;;;;;11.32;100.00;99056.06;5108629;28;20682;-67
2022/04/17 10:58:54;;;;;;;4.17;3.97;;;;;;;11.36;100.00;99050.78;5105681;28;20994;-67
2022/04/17 11:01:55;;;;;;;4.23;4.03;;;;;;;11.31;100.00;99047.53;5107190;28;20209;-68
2022/04/17 11:04:27;;;;;;;4.90;4.60;;;;;;;11.34;100.00;99060.25;5102130;27;20209;-67
2022/04/17 11:07:20;;;;;;;3.73;3.53;;;;;;;11.25;100.00;99052.91;5104243;28;20208;-67
2022/04/17 11:09:48;;;;;;;4.23;3.47;;;;;;;11.16;100.00;99055.81;5104801;27;20693;-68
2022/04/17 11:12:26;;;;;;;4.23;4.03;;;;;;;11.06;100.00;99041.66;5108058;28;20264;-67
2022/04/17 11:14:55;;;;;;;4.63;4.33;;;;;;;11.16;100.00;99068.66;5109324;27;20224;-67
2022/04/17 11:17:23;;;;;;;2.93;2.80;;;;;;;11.07;100.00;99069.00;5107098;27;20195;-67
2022/04/17 11:19:53;;;;;;;4.13;3.77;;;;;;;10.94;100.00;99065.22;5111455;27;20222;-67
2022/04/17 11:22:27;;;;;;;3.27;3.07;;;;;;;10.77;100.00;99060.69;5110778;28;20824;-66
2022/04/17 11:25:06;;;;;;;3.17;2.97;;;;;;;10.65;100.00;99052.63;5110546;28;20199;-66
2022/04/17 11:27:38;;;;;;;3.77;3.57;;;;;;;10.60;100.00;99051.97;5107200;28;20620;-66
2022/04/17 11:30:07;;;;;;;4.47;4.27;;;;;;;10.49;100.00;99055.72;5107678;28;20203;-66
2022/04/17 11:32:52;;;;;;;3.93;3.73;;;;;;;10.36;100.00;99043.41;5109043;27;20277;-67
2022/04/17 11:35:23;;;;;;;3.63;3.43;;;;;;;10.44;100.00;99062.72;5112526;28;20283;-66
2022/04/17 11:37:54;;;;;;;3.17;3.07;;;;;;;10.35;100.00;99057.94;5112401;28;20218;-66
2022/04/17 11:40:23;;;;;;;3.97;3.70;;;;;;;10.32;100.00;99047.78;5110806;28;20723;-66
2022/04/17 11:42:54;;;;;;;3.33;3.13;;;;;;;10.38;100.00;99047.56;5109537;28;20203;-67
2022/04/17 11:45:22;;;;;;;3.10;2.90;;;;;;;10.34;100.00;99043.44;5110155;28;20202;-67